sensor_id;sensor_type;location;lat;lon;timestamp;P1;durP1;ratioP1;P2;durP2;ratioP2
61471;SDS011;47337;54.068;12.114;2024-01-16T00:00:58;1.60;;;0.52;;
61471;SDS011;47337;54.068;12.114;2024-01-16T00:03:26;2.97;;;0.75;;
61471;SDS011;47337;54.068;12.114;2024-01-16T00:05:51;1.10;;;0.55;;
61471;SDS011;47337;54.068;12.114;2024-01-16T00:08:16;4.63;;;1.17;;
61471;SDS011;47337;54.068;12.114;2024-01-16T00:10:41;2.08;;;0.63;;
61471;SDS011;47337;54.068;12.114;2024-01-16T00:13:07;1.42;;;0.65;;
61471;SDS011;47337;54.068;12.114;2024-01-16T00:15:32;7.32;;;1.50;;
61471;SDS011;47337;54.068;12.114;2024-01-16T00:17:57;2.58;;;1.15;;
61471;SDS011;47337;54.068;12.114;2024-01-16T00:20:22;3.90;;;1.00;;
61471;SDS011;47337;54.068;12.114;2024-01-16T00:22:50;6.38;;;1.23;;
61471;SDS011;47337;54.068;12.114;2024-01-16T00:25:15;8.20;;;0.95;;
61471;SDS011;47337;54.068;12.114;2024-01-16T00:27:42;1.42;;;0.93;;
61471;SDS011;47337;54.068;12.114;2024-01-16T00:30:07;1.35;;;1.20;;
61471;SDS011;47337;54.068;12.114;2024-01-16T00:32:34;4.10;;;1.20;;
61471;SDS011;47337;54.068;12.114;2024-01-16T00:34:59;3.55;;;1.35;;
61471;SDS011;47337;54.068;12.114;2024-01-16T00:37:26;4.55;;;1.10;;
61471;SDS011;47337;54.068;12.114;2024-01-16T00:39:52;5.22;;;0.93;;
61471;SDS011;47337;54.068;12.114;2024-01-16T00:42:17;18.20;;;1.23;;
61471;SDS011;47337;54.068;12.114;2024-01-16T00:44:44;2.85;;;1.17;;
61471;SDS011;47337;54.068;12.114;2024-01-16T00:47:09;3.30;;;1.00;;
61471;SDS011;47337;54.068;12.114;2024-01-16T00:49:35;2.42;;;0.60;;
61471;SDS011;47337;54.068;12.114;2024-01-16T00:52:02;4.05;;;1.08;;
61471;SDS011;47337;54.068;12.114;2024-01-16T00:54:28;1.70;;;0.93;;
61471;SDS011;47337;54.068;12.114;2024-01-16T00:56:53;2.67;;;1.10;;
61471;SDS011;47337;54.068;12.114;2024-01-16T00:59:24;4.22;;;0.70;;
61471;SDS011;47337;54.068;12.114;2024-01-16T01:01:49;1.85;;;0.65;;
61471;SDS011;47337;54.068;12.114;2024-01-16T01:04:14;1.50;;;0.57;;
61471;SDS011;47337;54.068;12.114;2024-01-16T01:06:40;1.25;;;1.05;;
61471;SDS011;47337;54.068;12.114;2024-01-16T01:09:05;2.40;;;0.75;;
61471;SDS011;47337;54.068;12.114;2024-01-16T01:11:30;0.95;;;0.47;;
61471;SDS011;47337;54.068;12.114;2024-01-16T01:13:58;4.63;;;0.95;;
61471;SDS011;47337;54.068;12.114;2024-01-16T01:16:24;1.02;;;0.70;;
61471;SDS011;47337;54.068;12.114;2024-01-16T01:18:49;3.17;;;0.80;;
61471;SDS011;47337;54.068;12.114;2024-01-16T01:21:14;1.85;;;0.82;;
61471;SDS011;47337;54.068;12.114;2024-01-16T01:23:40;3.42;;;0.80;;
61471;SDS011;47337;54.068;12.114;2024-01-16T01:26:05;1.80;;;0.60;;
61471;SDS011;47337;54.068;12.114;2024-01-16T01:28:30;5.05;;;0.80;;
61471;SDS011;47337;54.068;12.114;2024-01-16T01:30:55;9.43;;;1.00;;
61471;SDS011;47337;54.068;12.114;2024-01-16T01:33:21;2.53;;;0.93;;
61471;SDS011;47337;54.068;12.114;2024-01-16T01:35:48;1.23;;;0.60;;
61471;SDS011;47337;54.068;12.114;2024-01-16T01:38:14;1.45;;;0.75;;
61471;SDS011;47337;54.068;12.114;2024-01-16T01:40:39;2.90;;;0.75;;
61471;SDS011;47337;54.068;12.114;2024-01-16T01:43:17;2.40;;;0.60;;
61471;SDS011;47337;54.068;12.114;2024-01-16T01:45:44;3.80;;;0.60;;
61471;SDS011;47337;54.068;12.114;2024-01-16T01:48:10;2.25;;;0.68;;
61471;SDS011;47337;54.068;12.114;2024-01-16T01:50:35;3.47;;;0.50;;
61471;SDS011;47337;54.068;12.114;2024-01-16T01:53:00;2.67;;;1.08;;
61471;SDS011;47337;54.068;12.114;2024-01-16T01:55:26;4.78;;;1.42;;
61471;SDS011;47337;54.068;12.114;2024-01-16T01:57:52;2.85;;;0.50;;
61471;SDS011;47337;54.068;12.114;2024-01-16T02:00:20;1.75;;;0.80;;
61471;SDS011;47337;54.068;12.114;2024-01-16T02:02:45;2.83;;;0.73;;
61471;SDS011;47337;54.068;12.114;2024-01-16T02:05:10;1.58;;;0.85;;
61471;SDS011;47337;54.068;12.114;2024-01-16T02:07:36;2.88;;;0.52;;
61471;SDS011;47337;54.068;12.114;2024-01-16T02:10:01;6.60;;;1.45;;
61471;SDS011;47337;54.068;12.114;2024-01-16T02:12:27;1.40;;;0.70;;
61471;SDS011;47337;54.068;12.114;2024-01-16T02:14:52;3.50;;;0.82;;
61471;SDS011;47337;54.068;12.114;2024-01-16T02:17:17;1.88;;;0.93;;
61471;SDS011;47337;54.068;12.114;2024-01-16T02:19:43;5.38;;;0.80;;
61471;SDS011;47337;54.068;12.114;2024-01-16T02:22:09;4.57;;;0.90;;
61471;SDS011;47337;54.068;12.114;2024-01-16T02:24:37;2.20;;;0.60;;
61471;SDS011;47337;54.068;12.114;2024-01-16T02:27:03;0.98;;;0.60;;
61471;SDS011;47337;54.068;12.114;2024-01-16T02:29:30;2.75;;;0.85;;
61471;SDS011;47337;54.068;12.114;2024-01-16T02:31:56;0.82;;;0.55;;
61471;SDS011;47337;54.068;12.114;2024-01-16T02:34:21;2.08;;;0.60;;
61471;SDS011;47337;54.068;12.114;2024-01-16T02:36:46;1.85;;;0.80;;
61471;SDS011;47337;54.068;12.114;2024-01-16T02:39:12;2.03;;;0.73;;
61471;SDS011;47337;54.068;12.114;2024-01-16T02:41:37;3.30;;;0.80;;
61471;SDS011;47337;54.068;12.114;2024-01-16T02:44:02;6.10;;;0.80;;
61471;SDS011;47337;54.068;12.114;2024-01-16T02:46:27;7.13;;;0.90;;
61471;SDS011;47337;54.068;12.114;2024-01-16T02:48:53;1.90;;;0.90;;
61471;SDS011;47337;54.068;12.114;2024-01-16T02:51:18;2.75;;;0.82;;
61471;SDS011;47337;54.068;12.114;2024-01-16T02:53:43;5.78;;;0.88;;
61471;SDS011;47337;54.068;12.114;2024-01-16T02:56:11;0.95;;;0.82;;
61471;SDS011;47337;54.068;12.114;2024-01-16T02:58:36;3.03;;;1.10;;
61471;SDS011;47337;54.068;12.114;2024-01-16T03:01:01;5.80;;;1.02;;
61471;SDS011;47337;54.068;12.114;2024-01-16T03:03:27;1.40;;;0.80;;
61471;SDS011;47337;54.068;12.114;2024-01-16T03:05:53;3.15;;;0.98;;
61471;SDS011;47337;54.068;12.114;2024-01-16T03:08:18;2.42;;;1.10;;
61471;SDS011;47337;54.068;12.114;2024-01-16T03:10:43;3.40;;;1.05;;
61471;SDS011;47337;54.068;12.114;2024-01-16T03:13:09;5.72;;;1.10;;
61471;SDS011;47337;54.068;12.114;2024-01-16T03:15:34;3.33;;;1.10;;
61471;SDS011;47337;54.068;12.114;2024-01-16T03:18:02;1.30;;;0.90;;
61471;SDS011;47337;54.068;12.114;2024-01-16T03:20:28;1.73;;;0.80;;
61471;SDS011;47337;54.068;12.114;2024-01-16T03:22:53;1.88;;;0.90;;
61471;SDS011;47337;54.068;12.114;2024-01-16T03:25:19;4.22;;;0.93;;
61471;SDS011;47337;54.068;12.114;2024-01-16T03:27:47;1.48;;;0.80;;
61471;SDS011;47337;54.068;12.114;2024-01-16T03:30:14;2.10;;;0.75;;
61471;SDS011;47337;54.068;12.114;2024-01-16T03:32:39;2.22;;;0.90;;
61471;SDS011;47337;54.068;12.114;2024-01-16T03:35:05;2.90;;;1.00;;
61471;SDS011;47337;54.068;12.114;2024-01-16T03:37:31;2.88;;;0.93;;
61471;SDS011;47337;54.068;12.114;2024-01-16T03:39:56;3.58;;;0.90;;
61471;SDS011;47337;54.068;12.114;2024-01-16T03:42:24;4.43;;;2.97;;
61471;SDS011;47337;54.068;12.114;2024-01-16T03:44:49;7.05;;;3.35;;
61471;SDS011;47337;54.068;12.114;2024-01-16T03:47:17;4.30;;;2.15;;
61471;SDS011;47337;54.068;12.114;2024-01-16T03:49:45;6.32;;;1.85;;
61471;SDS011;47337;54.068;12.114;2024-01-16T03:52:10;8.98;;;2.90;;
61471;SDS011;47337;54.068;12.114;2024-01-16T03:54:38;4.35;;;2.22;;
61471;SDS011;47337;54.068;12.114;2024-01-16T03:57:03;6.30;;;2.58;;
61471;SDS011;47337;54.068;12.114;2024-01-16T03:59:29;4.20;;;2.78;;
61471;SDS011;47337;54.068;12.114;2024-01-16T04:01:56;3.30;;;1.60;;
61471;SDS011;47337;54.068;12.114;2024-01-16T04:04:22;3.33;;;1.52;;
61471;SDS011;47337;54.068;12.114;2024-01-16T04:06:48;4.38;;;1.33;;
61471;SDS011;47337;54.068;12.114;2024-01-16T04:09:13;7.13;;;1.23;;
61471;SDS011;47337;54.068;12.114;2024-01-16T04:11:39;2.67;;;1.45;;
61471;SDS011;47337;54.068;12.114;2024-01-16T04:14:04;2.97;;;0.98;;
61471;SDS011;47337;54.068;12.114;2024-01-16T04:16:30;2.17;;;1.00;;
61471;SDS011;47337;54.068;12.114;2024-01-16T04:18:55;0.75;;;0.70;;
61471;SDS011;47337;54.068;12.114;2024-01-16T04:21:20;4.30;;;1.67;;
61471;SDS011;47337;54.068;12.114;2024-01-16T04:23:45;2.22;;;1.10;;
61471;SDS011;47337;54.068;12.114;2024-01-16T04:26:11;2.95;;;1.30;;
61471;SDS011;47337;54.068;12.114;2024-01-16T04:28:38;1.83;;;1.10;;
61471;SDS011;47337;54.068;12.114;2024-01-16T04:31:07;2.90;;;1.05;;
61471;SDS011;47337;54.068;12.114;2024-01-16T04:33:33;3.28;;;1.30;;
61471;SDS011;47337;54.068;12.114;2024-01-16T04:35:58;2.85;;;1.20;;
61471;SDS011;47337;54.068;12.114;2024-01-16T04:38:25;3.42;;;1.00;;
61471;SDS011;47337;54.068;12.114;2024-01-16T04:40:51;2.85;;;1.05;;
61471;SDS011;47337;54.068;12.114;2024-01-16T04:43:18;1.65;;;1.13;;
61471;SDS011;47337;54.068;12.114;2024-01-16T04:45:44;4.28;;;1.23;;
61471;SDS011;47337;54.068;12.114;2024-01-16T04:48:09;2.03;;;1.10;;
61471;SDS011;47337;54.068;12.114;2024-01-16T04:50:34;2.60;;;0.80;;
61471;SDS011;47337;54.068;12.114;2024-01-16T04:53:00;5.05;;;1.20;;
61471;SDS011;47337;54.068;12.114;2024-01-16T04:55:26;2.38;;;1.13;;
61471;SDS011;47337;54.068;12.114;2024-01-16T04:57:52;4.30;;;1.27;;
61471;SDS011;47337;54.068;12.114;2024-01-16T05:00:17;2.70;;;0.80;;
61471;SDS011;47337;54.068;12.114;2024-01-16T05:02:42;1.00;;;0.63;;
61471;SDS011;47337;54.068;12.114;2024-01-16T05:05:12;2.38;;;1.02;;
61471;SDS011;47337;54.068;12.114;2024-01-16T05:07:38;3.40;;;1.15;;
61471;SDS011;47337;54.068;12.114;2024-01-16T05:10:03;11.48;;;1.73;;
61471;SDS011;47337;54.068;12.114;2024-01-16T05:12:29;4.65;;;1.30;;
61471;SDS011;47337;54.068;12.114;2024-01-16T05:14:57;1.77;;;1.20;;
61471;SDS011;47337;54.068;12.114;2024-01-16T05:17:23;4.43;;;1.38;;
61471;SDS011;47337;54.068;12.114;2024-01-16T05:19:48;3.97;;;1.00;;
61471;SDS011;47337;54.068;12.114;2024-01-16T05:22:13;1.38;;;0.95;;
61471;SDS011;47337;54.068;12.114;2024-01-16T05:24:39;3.15;;;1.35;;
61471;SDS011;47337;54.068;12.114;2024-01-16T05:27:06;1.23;;;0.90;;
61471;SDS011;47337;54.068;12.114;2024-01-16T05:29:31;3.92;;;1.35;;
61471;SDS011;47337;54.068;12.114;2024-01-16T05:31:57;2.03;;;1.17;;
61471;SDS011;47337;54.068;12.114;2024-01-16T05:34:24;2.33;;;1.13;;
61471;SDS011;47337;54.068;12.114;2024-01-16T05:36:50;1.95;;;1.10;;
61471;SDS011;47337;54.068;12.114;2024-01-16T05:39:16;2.85;;;1.42;;
61471;SDS011;47337;54.068;12.114;2024-01-16T05:41:42;4.78;;;1.70;;
61471;SDS011;47337;54.068;12.114;2024-01-16T05:44:07;3.83;;;1.27;;
61471;SDS011;47337;54.068;12.114;2024-01-16T05:46:35;4.70;;;2.38;;
61471;SDS011;47337;54.068;12.114;2024-01-16T05:49:00;3.65;;;1.60;;
61471;SDS011;47337;54.068;12.114;2024-01-16T05:51:28;4.25;;;1.25;;
61471;SDS011;47337;54.068;12.114;2024-01-16T05:53:53;6.13;;;1.50;;
61471;SDS011;47337;54.068;12.114;2024-01-16T05:56:19;7.03;;;1.63;;
61471;SDS011;47337;54.068;12.114;2024-01-16T05:58:44;2.13;;;1.10;;
61471;SDS011;47337;54.068;12.114;2024-01-16T06:01:10;2.08;;;1.00;;
61471;SDS011;47337;54.068;12.114;2024-01-16T06:03:38;2.13;;;1.27;;
61471;SDS011;47337;54.068;12.114;2024-01-16T06:06:03;4.05;;;1.50;;
61471;SDS011;47337;54.068;12.114;2024-01-16T06:08:28;6.05;;;1.75;;
61471;SDS011;47337;54.068;12.114;2024-01-16T06:10:55;3.50;;;1.02;;
61471;SDS011;47337;54.068;12.114;2024-01-16T06:13:20;2.33;;;1.30;;
61471;SDS011;47337;54.068;12.114;2024-01-16T06:15:48;3.63;;;1.40;;
61471;SDS011;47337;54.068;12.114;2024-01-16T06:18:13;4.38;;;1.75;;
61471;SDS011;47337;54.068;12.114;2024-01-16T06:20:39;2.42;;;1.10;;
61471;SDS011;47337;54.068;12.114;2024-01-16T06:23:04;3.47;;;1.40;;
61471;SDS011;47337;54.068;12.114;2024-01-16T06:25:29;3.03;;;1.08;;
61471;SDS011;47337;54.068;12.114;2024-01-16T06:27:54;2.72;;;1.20;;
61471;SDS011;47337;54.068;12.114;2024-01-16T06:30:20;2.75;;;1.23;;
61471;SDS011;47337;54.068;12.114;2024-01-16T06:32:45;3.72;;;1.77;;
61471;SDS011;47337;54.068;12.114;2024-01-16T06:35:12;2.22;;;1.35;;
61471;SDS011;47337;54.068;12.114;2024-01-16T06:37:42;2.78;;;1.40;;
61471;SDS011;47337;54.068;12.114;2024-01-16T06:40:10;5.18;;;1.77;;
61471;SDS011;47337;54.068;12.114;2024-01-16T06:42:35;6.53;;;2.95;;
61471;SDS011;47337;54.068;12.114;2024-01-16T06:45:03;4.68;;;2.42;;
61471;SDS011;47337;54.068;12.114;2024-01-16T06:47:29;5.82;;;2.13;;
61471;SDS011;47337;54.068;12.114;2024-01-16T06:49:54;6.15;;;2.50;;
61471;SDS011;47337;54.068;12.114;2024-01-16T06:52:19;3.78;;;2.70;;
61471;SDS011;47337;54.068;12.114;2024-01-16T06:54:44;5.32;;;2.45;;
61471;SDS011;47337;54.068;12.114;2024-01-16T06:57:10;7.85;;;2.92;;
61471;SDS011;47337;54.068;12.114;2024-01-16T06:59:35;3.83;;;2.53;;
61471;SDS011;47337;54.068;12.114;2024-01-16T07:02:03;6.22;;;2.80;;
61471;SDS011;47337;54.068;12.114;2024-01-16T07:04:28;5.68;;;3.13;;
61471;SDS011;47337;54.068;12.114;2024-01-16T07:06:54;5.80;;;2.55;;
61471;SDS011;47337;54.068;12.114;2024-01-16T07:09:19;6.72;;;2.88;;
61471;SDS011;47337;54.068;12.114;2024-01-16T07:11:46;7.05;;;2.70;;
61471;SDS011;47337;54.068;12.114;2024-01-16T07:14:11;6.25;;;2.95;;
61471;SDS011;47337;54.068;12.114;2024-01-16T07:16:37;4.50;;;2.40;;
61471;SDS011;47337;54.068;12.114;2024-01-16T07:19:02;7.00;;;2.72;;
61471;SDS011;47337;54.068;12.114;2024-01-16T07:21:27;6.50;;;3.42;;
61471;SDS011;47337;54.068;12.114;2024-01-16T07:23:53;5.88;;;3.30;;
61471;SDS011;47337;54.068;12.114;2024-01-16T07:26:21;10.10;;;3.15;;
61471;SDS011;47337;54.068;12.114;2024-01-16T07:28:46;8.75;;;4.07;;
61471;SDS011;47337;54.068;12.114;2024-01-16T07:31:13;8.02;;;3.90;;
61471;SDS011;47337;54.068;12.114;2024-01-16T07:33:38;9.88;;;3.63;;
61471;SDS011;47337;54.068;12.114;2024-01-16T07:36:04;9.77;;;4.40;;
61471;SDS011;47337;54.068;12.114;2024-01-16T07:38:31;7.93;;;4.32;;
61471;SDS011;47337;54.068;12.114;2024-01-16T07:40:57;11.55;;;4.30;;
61471;SDS011;47337;54.068;12.114;2024-01-16T07:43:22;9.30;;;4.35;;
61471;SDS011;47337;54.068;12.114;2024-01-16T07:45:47;10.45;;;4.47;;
61471;SDS011;47337;54.068;12.114;2024-01-16T07:48:13;9.52;;;5.00;;
61471;SDS011;47337;54.068;12.114;2024-01-16T07:50:38;11.80;;;5.10;;
61471;SDS011;47337;54.068;12.114;2024-01-16T07:53:03;16.48;;;5.53;;
61471;SDS011;47337;54.068;12.114;2024-01-16T07:55:28;13.68;;;6.43;;
61471;SDS011;47337;54.068;12.114;2024-01-16T07:57:54;18.73;;;6.88;;
61471;SDS011;47337;54.068;12.114;2024-01-16T08:00:19;16.45;;;6.43;;
61471;SDS011;47337;54.068;12.114;2024-01-16T08:02:44;17.23;;;6.95;;
61471;SDS011;47337;54.068;12.114;2024-01-16T08:05:10;17.05;;;6.88;;
61471;SDS011;47337;54.068;12.114;2024-01-16T08:07:35;16.42;;;6.75;;
61471;SDS011;47337;54.068;12.114;2024-01-16T08:10:03;14.23;;;6.40;;
61471;SDS011;47337;54.068;12.114;2024-01-16T08:12:28;15.77;;;5.65;;
61471;SDS011;47337;54.068;12.114;2024-01-16T08:14:53;11.40;;;5.45;;
61471;SDS011;47337;54.068;12.114;2024-01-16T08:17:19;13.52;;;5.63;;
61471;SDS011;47337;54.068;12.114;2024-01-16T08:19:44;10.43;;;5.15;;
61471;SDS011;47337;54.068;12.114;2024-01-16T08:22:09;9.65;;;4.88;;
61471;SDS011;47337;54.068;12.114;2024-01-16T08:24:34;12.15;;;5.40;;
61471;SDS011;47337;54.068;12.114;2024-01-16T08:26:59;11.35;;;5.63;;
61471;SDS011;47337;54.068;12.114;2024-01-16T08:29:25;9.07;;;4.25;;
61471;SDS011;47337;54.068;12.114;2024-01-16T08:31:50;11.85;;;4.28;;
61471;SDS011;47337;54.068;12.114;2024-01-16T08:34:18;15.75;;;4.38;;
61471;SDS011;47337;54.068;12.114;2024-01-16T08:36:43;8.50;;;4.20;;
61471;SDS011;47337;54.068;12.114;2024-01-16T08:39:10;8.88;;;4.07;;
61471;SDS011;47337;54.068;12.114;2024-01-16T08:41:35;8.15;;;3.90;;
61471;SDS011;47337;54.068;12.114;2024-01-16T08:44:01;9.15;;;4.10;;
61471;SDS011;47337;54.068;12.114;2024-01-16T08:46:26;7.88;;;4.18;;
61471;SDS011;47337;54.068;12.114;2024-01-16T08:48:51;11.23;;;4.75;;
61471;SDS011;47337;54.068;12.114;2024-01-16T08:51:16;10.65;;;4.15;;
61471;SDS011;47337;54.068;12.114;2024-01-16T08:53:42;7.25;;;3.92;;
61471;SDS011;47337;54.068;12.114;2024-01-16T08:56:07;5.68;;;3.28;;
61471;SDS011;47337;54.068;12.114;2024-01-16T08:58:33;7.57;;;3.97;;
61471;SDS011;47337;54.068;12.114;2024-01-16T09:01:03;10.15;;;4.43;;
61471;SDS011;47337;54.068;12.114;2024-01-16T09:03:29;12.48;;;4.60;;
61471;SDS011;47337;54.068;12.114;2024-01-16T09:05:54;10.57;;;4.18;;
61471;SDS011;47337;54.068;12.114;2024-01-16T09:08:19;10.32;;;4.22;;
61471;SDS011;47337;54.068;12.114;2024-01-16T09:10:44;10.32;;;4.63;;
61471;SDS011;47337;54.068;12.114;2024-01-16T09:13:10;10.30;;;4.63;;
61471;SDS011;47337;54.068;12.114;2024-01-16T09:15:35;11.10;;;4.95;;
61471;SDS011;47337;54.068;12.114;2024-01-16T09:18:00;11.23;;;6.05;;
61471;SDS011;47337;54.068;12.114;2024-01-16T09:20:25;11.93;;;5.65;;
61471;SDS011;47337;54.068;12.114;2024-01-16T09:22:51;12.93;;;6.53;;
61471;SDS011;47337;54.068;12.114;2024-01-16T09:25:16;11.35;;;6.00;;
61471;SDS011;47337;54.068;12.114;2024-01-16T09:27:42;12.65;;;6.32;;
61471;SDS011;47337;54.068;12.114;2024-01-16T09:30:07;14.02;;;5.75;;
61471;SDS011;47337;54.068;12.114;2024-01-16T09:32:32;11.23;;;5.57;;
61471;SDS011;47337;54.068;12.114;2024-01-16T09:35:00;12.88;;;6.13;;
61471;SDS011;47337;54.068;12.114;2024-01-16T09:37:27;15.65;;;6.22;;
61471;SDS011;47337;54.068;12.114;2024-01-16T09:39:53;14.45;;;6.03;;
61471;SDS011;47337;54.068;12.114;2024-01-16T09:42:19;9.68;;;5.22;;
61471;SDS011;47337;54.068;12.114;2024-01-16T09:44:44;11.05;;;5.88;;
61471;SDS011;47337;54.068;12.114;2024-01-16T09:47:10;15.10;;;6.75;;
61471;SDS011;47337;54.068;12.114;2024-01-16T09:49:36;9.95;;;4.85;;
61471;SDS011;47337;54.068;12.114;2024-01-16T09:52:01;9.70;;;4.95;;
61471;SDS011;47337;54.068;12.114;2024-01-16T09:54:27;12.30;;;5.43;;
61471;SDS011;47337;54.068;12.114;2024-01-16T09:56:53;11.27;;;5.00;;
61471;SDS011;47337;54.068;12.114;2024-01-16T09:59:19;12.88;;;5.93;;
61471;SDS011;47337;54.068;12.114;2024-01-16T10:01:45;16.33;;;5.75;;
61471;SDS011;47337;54.068;12.114;2024-01-16T10:04:11;11.15;;;5.50;;
61471;SDS011;47337;54.068;12.114;2024-01-16T10:06:36;11.77;;;5.43;;
61471;SDS011;47337;54.068;12.114;2024-01-16T10:09:02;9.80;;;4.95;;
61471;SDS011;47337;54.068;12.114;2024-01-16T10:11:28;9.80;;;5.57;;
61471;SDS011;47337;54.068;12.114;2024-01-16T10:13:54;10.48;;;5.38;;
61471;SDS011;47337;54.068;12.114;2024-01-16T10:16:19;12.82;;;5.05;;
61471;SDS011;47337;54.068;12.114;2024-01-16T10:18:46;10.38;;;5.57;;
61471;SDS011;47337;54.068;12.114;2024-01-16T10:21:23;12.02;;;5.72;;
61471;SDS011;47337;54.068;12.114;2024-01-16T10:23:50;9.32;;;4.88;;
61471;SDS011;47337;54.068;12.114;2024-01-16T10:26:15;9.80;;;4.85;;
61471;SDS011;47337;54.068;12.114;2024-01-16T10:28:43;9.68;;;4.85;;
61471;SDS011;47337;54.068;12.114;2024-01-16T10:31:09;9.93;;;5.03;;
61471;SDS011;47337;54.068;12.114;2024-01-16T10:33:35;9.98;;;6.00;;
61471;SDS011;47337;54.068;12.114;2024-01-16T10:36:13;9.75;;;5.30;;
61471;SDS011;47337;54.068;12.114;2024-01-16T10:38:40;8.70;;;5.10;;
61471;SDS011;47337;54.068;12.114;2024-01-16T10:43:31;9.50;;;5.25;;
61471;SDS011;47337;54.068;12.114;2024-01-16T10:46:06;12.93;;;5.80;;
61471;SDS011;47337;54.068;12.114;2024-01-16T10:48:31;10.60;;;5.28;;
61471;SDS011;47337;54.068;12.114;2024-01-16T10:50:57;10.63;;;5.22;;
61471;SDS011;47337;54.068;12.114;2024-01-16T10:53:22;9.48;;;5.57;;
61471;SDS011;47337;54.068;12.114;2024-01-16T10:55:50;8.93;;;4.85;;
61471;SDS011;47337;54.068;12.114;2024-01-16T10:58:16;9.98;;;4.55;;
61471;SDS011;47337;54.068;12.114;2024-01-16T11:00:43;9.10;;;4.45;;
61471;SDS011;47337;54.068;12.114;2024-01-16T11:03:18;11.65;;;5.57;;
61471;SDS011;47337;54.068;12.114;2024-01-16T11:05:45;13.27;;;5.63;;
61471;SDS011;47337;54.068;12.114;2024-01-16T11:08:11;11.07;;;5.30;;
61471;SDS011;47337;54.068;12.114;2024-01-16T11:10:38;10.55;;;6.25;;
61471;SDS011;47337;54.068;12.114;2024-01-16T11:13:04;12.90;;;6.00;;
61471;SDS011;47337;54.068;12.114;2024-01-16T11:15:30;10.80;;;5.30;;
61471;SDS011;47337;54.068;12.114;2024-01-16T11:17:56;13.70;;;6.43;;
61471;SDS011;47337;54.068;12.114;2024-01-16T11:20:22;14.43;;;6.65;;
61471;SDS011;47337;54.068;12.114;2024-01-16T11:22:48;12.48;;;6.78;;
61471;SDS011;47337;54.068;12.114;2024-01-16T11:25:15;9.80;;;5.68;;
61471;SDS011;47337;54.068;12.114;2024-01-16T11:27:41;14.90;;;6.03;;
61471;SDS011;47337;54.068;12.114;2024-01-16T11:30:07;16.20;;;6.88;;
61471;SDS011;47337;54.068;12.114;2024-01-16T11:32:39;13.50;;;6.75;;
61471;SDS011;47337;54.068;12.114;2024-01-16T11:35:09;14.00;;;6.55;;
61471;SDS011;47337;54.068;12.114;2024-01-16T11:37:38;14.18;;;6.28;;
61471;SDS011;47337;54.068;12.114;2024-01-16T11:42:41;13.32;;;5.43;;
61471;SDS011;47337;54.068;12.114;2024-01-16T11:50:36;12.88;;;6.90;;
61471;SDS011;47337;54.068;12.114;2024-01-16T11:53:04;17.00;;;6.72;;
61471;SDS011;47337;54.068;12.114;2024-01-16T11:55:30;12.48;;;5.90;;
61471;SDS011;47337;54.068;12.114;2024-01-16T12:00:42;14.82;;;6.07;;
61471;SDS011;47337;54.068;12.114;2024-01-16T12:03:10;15.10;;;7.45;;
61471;SDS011;47337;54.068;12.114;2024-01-16T12:05:38;14.32;;;6.38;;
61471;SDS011;47337;54.068;12.114;2024-01-16T12:08:04;11.05;;;6.15;;
61471;SDS011;47337;54.068;12.114;2024-01-16T12:10:31;14.15;;;7.15;;
61471;SDS011;47337;54.068;12.114;2024-01-16T12:12:59;16.30;;;6.00;;
61471;SDS011;47337;54.068;12.114;2024-01-16T12:15:24;13.50;;;5.65;;
61471;SDS011;47337;54.068;12.114;2024-01-16T12:20:19;13.45;;;5.88;;
61471;SDS011;47337;54.068;12.114;2024-01-16T12:22:44;10.00;;;5.20;;
61471;SDS011;47337;54.068;12.114;2024-01-16T12:25:09;10.63;;;4.88;;
61471;SDS011;47337;54.068;12.114;2024-01-16T12:27:35;10.98;;;5.03;;
61471;SDS011;47337;54.068;12.114;2024-01-16T12:30:05;10.77;;;5.60;;
61471;SDS011;47337;54.068;12.114;2024-01-16T12:32:32;11.55;;;5.50;;
61471;SDS011;47337;54.068;12.114;2024-01-16T12:34:57;10.90;;;4.95;;
61471;SDS011;47337;54.068;12.114;2024-01-16T12:37:22;9.15;;;4.65;;
61471;SDS011;47337;54.068;12.114;2024-01-16T12:39:48;9.13;;;4.90;;
61471;SDS011;47337;54.068;12.114;2024-01-16T12:42:14;9.75;;;4.68;;
61471;SDS011;47337;54.068;12.114;2024-01-16T12:44:39;9.48;;;5.22;;
61471;SDS011;47337;54.068;12.114;2024-01-16T12:47:05;13.02;;;5.70;;
61471;SDS011;47337;54.068;12.114;2024-01-16T12:49:33;9.93;;;5.00;;
61471;SDS011;47337;54.068;12.114;2024-01-16T12:52:14;10.60;;;4.70;;
61471;SDS011;47337;54.068;12.114;2024-01-16T12:54:39;10.45;;;5.55;;
61471;SDS011;47337;54.068;12.114;2024-01-16T12:57:04;9.88;;;5.57;;
61471;SDS011;47337;54.068;12.114;2024-01-16T12:59:33;12.30;;;5.45;;
61471;SDS011;47337;54.068;12.114;2024-01-16T13:01:58;9.93;;;4.75;;
61471;SDS011;47337;54.068;12.114;2024-01-16T13:04:25;9.90;;;5.15;;
61471;SDS011;47337;54.068;12.114;2024-01-16T13:06:50;8.10;;;4.75;;
61471;SDS011;47337;54.068;12.114;2024-01-16T13:09:16;10.57;;;4.93;;
61471;SDS011;47337;54.068;12.114;2024-01-16T13:11:48;8.73;;;4.55;;
61471;SDS011;47337;54.068;12.114;2024-01-16T13:14:14;12.32;;;5.15;;
61471;SDS011;47337;54.068;12.114;2024-01-16T13:16:39;11.43;;;5.32;;
61471;SDS011;47337;54.068;12.114;2024-01-16T13:19:05;10.75;;;5.32;;
61471;SDS011;47337;54.068;12.114;2024-01-16T13:21:35;12.52;;;5.93;;
61471;SDS011;47337;54.068;12.114;2024-01-16T13:24:02;10.48;;;5.60;;
61471;SDS011;47337;54.068;12.114;2024-01-16T13:26:30;10.23;;;5.53;;
61471;SDS011;47337;54.068;12.114;2024-01-16T13:28:55;12.55;;;5.32;;
61471;SDS011;47337;54.068;12.114;2024-01-16T13:31:20;12.73;;;5.18;;
61471;SDS011;47337;54.068;12.114;2024-01-16T13:33:45;12.25;;;5.57;;
61471;SDS011;47337;54.068;12.114;2024-01-16T13:36:11;10.05;;;4.20;;
61471;SDS011;47337;54.068;12.114;2024-01-16T13:38:37;11.93;;;5.20;;
61471;SDS011;47337;54.068;12.114;2024-01-16T13:41:04;11.73;;;5.75;;
61471;SDS011;47337;54.068;12.114;2024-01-16T13:43:30;12.27;;;5.07;;
61471;SDS011;47337;54.068;12.114;2024-01-16T13:45:55;12.70;;;5.75;;
61471;SDS011;47337;54.068;12.114;2024-01-16T13:48:20;12.93;;;5.53;;
61471;SDS011;47337;54.068;12.114;2024-01-16T13:50:46;14.60;;;4.88;;
61471;SDS011;47337;54.068;12.114;2024-01-16T13:53:11;10.38;;;5.15;;
61471;SDS011;47337;54.068;12.114;2024-01-16T13:55:39;11.75;;;5.75;;
61471;SDS011;47337;54.068;12.114;2024-01-16T13:58:04;9.88;;;6.25;;
61471;SDS011;47337;54.068;12.114;2024-01-16T14:00:29;11.02;;;5.22;;
61471;SDS011;47337;54.068;12.114;2024-01-16T14:02:55;10.10;;;5.32;;
61471;SDS011;47337;54.068;12.114;2024-01-16T14:05:21;10.45;;;5.07;;
61471;SDS011;47337;54.068;12.114;2024-01-16T14:07:49;10.52;;;4.82;;
61471;SDS011;47337;54.068;12.114;2024-01-16T14:10:20;9.30;;;5.07;;
61471;SDS011;47337;54.068;12.114;2024-01-16T14:12:46;12.75;;;5.47;;
61471;SDS011;47337;54.068;12.114;2024-01-16T14:15:12;8.68;;;4.70;;
61471;SDS011;47337;54.068;12.114;2024-01-16T14:17:51;13.25;;;5.95;;
61471;SDS011;47337;54.068;12.114;2024-01-16T14:20:16;8.25;;;4.55;;
61471;SDS011;47337;54.068;12.114;2024-01-16T14:22:45;8.88;;;4.95;;
61471;SDS011;47337;54.068;12.114;2024-01-16T14:25:11;11.55;;;4.82;;
61471;SDS011;47337;54.068;12.114;2024-01-16T14:27:40;11.13;;;4.72;;
61471;SDS011;47337;54.068;12.114;2024-01-16T14:30:07;13.15;;;5.40;;
61471;SDS011;47337;54.068;12.114;2024-01-16T14:32:36;10.85;;;5.30;;
61471;SDS011;47337;54.068;12.114;2024-01-16T14:35:05;10.15;;;4.95;;
61471;SDS011;47337;54.068;12.114;2024-01-16T14:37:34;13.30;;;5.53;;
61471;SDS011;47337;54.068;12.114;2024-01-16T14:40:00;14.00;;;5.63;;